createdAt,value
2023-04-22T00:04:15.724Z,19.70
2023-04-22T00:09:17.710Z,19.69
2023-04-22T00:14:19.502Z,19.65
2023-04-22T00:19:22.105Z,19.67
2023-04-22T00:24:23.891Z,19.65
2023-04-22T00:29:26.255Z,19.72
2023-04-22T00:34:28.056Z,19.69
2023-04-22T00:39:30.251Z,19.66
2023-04-22T00:44:32.899Z,19.66
2023-04-22T00:49:35.762Z,19.67
2023-04-22T00:54:38.100Z,19.68
2023-04-22T00:59:40.411Z,19.65
2023-04-22T01:04:42.842Z,19.65
2023-04-22T01:09:44.768Z,19.69
2023-04-22T01:14:46.632Z,19.66
2023-04-22T01:19:48.944Z,19.68
2023-04-22T01:24:51.203Z,19.66
2023-04-22T01:29:53.326Z,19.70
2023-04-22T01:34:55.118Z,19.67
2023-04-22T01:39:58.603Z,19.67
2023-04-22T01:45:00.404Z,19.67
2023-04-22T01:50:02.202Z,19.63
2023-04-22T01:55:04.229Z,19.68
2023-04-22T02:00:07.485Z,19.67
2023-04-22T02:05:09.774Z,19.63
2023-04-22T02:10:12.266Z,19.66
2023-04-22T02:15:14.069Z,19.66
2023-04-22T02:20:15.910Z,19.66
2023-04-22T02:25:17.931Z,19.65
2023-04-22T02:30:19.782Z,19.62
2023-04-22T02:35:21.749Z,19.62
2023-04-22T02:40:23.698Z,19.63
2023-04-22T02:45:25.520Z,19.63
2023-04-22T02:50:27.271Z,19.64
2023-04-22T02:55:29.127Z,19.63
2023-04-22T03:00:31.054Z,19.60
2023-04-22T03:05:32.933Z,19.64
2023-04-22T03:10:34.888Z,19.61
2023-04-22T03:15:36.697Z,19.61
2023-04-22T03:20:38.611Z,19.64
2023-04-22T03:25:40.406Z,19.60
2023-04-22T03:30:42.183Z,19.62
2023-04-22T03:35:44.105Z,19.62
2023-04-22T03:40:45.844Z,19.61
2023-04-22T03:45:47.791Z,19.63
2023-04-22T03:50:49.630Z,19.63
2023-04-22T03:55:51.567Z,19.62
2023-04-22T04:00:53.390Z,19.62
2023-04-22T04:05:55.461Z,19.63
2023-04-22T04:10:57.305Z,19.64
2023-04-22T04:16:00.520Z,19.59
2023-04-22T04:21:02.663Z,19.66
2023-04-22T04:26:05.774Z,19.59
2023-04-22T04:31:08.072Z,19.61
2023-04-22T04:36:10.489Z,19.60
2023-04-22T04:41:12.324Z,19.61
2023-04-22T04:46:15.024Z,19.61
2023-04-22T04:51:18.223Z,19.59
2023-04-22T04:56:21.952Z,19.60
2023-04-22T05:01:23.927Z,19.68
2023-04-22T05:06:26.848Z,19.60
2023-04-22T05:11:28.692Z,19.64
2023-04-22T05:16:30.679Z,19.62
2023-04-22T05:21:32.713Z,19.56
2023-04-22T05:26:34.607Z,19.60
2023-04-22T05:31:36.410Z,19.66
2023-04-22T05:36:38.466Z,19.64
2023-04-22T05:41:40.724Z,19.60
2023-04-22T05:46:42.479Z,19.59
2023-04-22T05:51:44.282Z,19.62
2023-04-22T05:56:46.131Z,19.62
2023-04-22T06:01:48.027Z,19.59
2023-04-22T06:06:53.907Z,19.59
2023-04-22T06:11:55.696Z,19.68
2023-04-22T06:16:57.505Z,19.70
2023-04-22T06:21:59.250Z,19.70
2023-04-22T06:27:01.293Z,19.70
2023-04-22T06:32:03.779Z,19.66
2023-04-22T06:37:06.468Z,19.67
2023-04-22T06:42:08.598Z,19.68
2023-04-22T06:47:10.372Z,19.62
2023-04-22T06:52:12.461Z,19.64
2023-04-22T06:57:14.335Z,19.63
2023-04-22T07:02:16.377Z,19.69
2023-04-22T07:07:18.960Z,19.65
2023-04-22T07:12:20.854Z,19.66
2023-04-22T07:17:22.873Z,19.80
2023-04-22T07:22:24.726Z,19.85
2023-04-22T07:27:26.616Z,19.88
2023-04-22T07:32:28.415Z,20.27
2023-04-22T07:37:30.173Z,20.33
2023-04-22T07:42:32.061Z,20.30
2023-04-22T07:47:33.905Z,20.30
2023-04-22T07:52:36.618Z,20.26
2023-04-22T07:57:40.075Z,20.35
2023-04-22T08:02:42.386Z,20.41
2023-04-22T08:07:44.299Z,20.39
2023-04-22T08:12:46.299Z,20.46
2023-04-22T08:17:49.258Z,20.58
2023-04-22T08:22:51.811Z,20.56
2023-04-22T08:27:53.628Z,20.57
2023-04-22T08:32:55.472Z,20.55
2023-04-22T08:37:57.282Z,20.60
2023-04-22T08:42:59.214Z,20.47
2023-04-22T08:48:02.633Z,20.37
2023-04-22T08:53:04.506Z,20.45
2023-04-22T08:58:06.431Z,20.32
2023-04-22T09:03:08.926Z,20.41
2023-04-22T09:08:12.141Z,20.40
2023-04-22T09:13:14.953Z,20.35
2023-04-22T09:18:20.088Z,20.40
2023-04-22T09:23:22.999Z,20.33
2023-04-22T09:28:24.806Z,20.29
2023-04-22T09:33:26.690Z,20.30
2023-04-22T09:38:31.883Z,20.25
2023-04-22T09:43:33.711Z,20.27
2023-04-22T09:48:42.873Z,20.15
2023-04-22T09:53:44.779Z,20.21
2023-04-22T09:58:52.617Z,20.26
2023-04-22T10:03:54.659Z,20.29
2023-04-22T10:08:57.675Z,20.28
2023-04-22T10:14:01.331Z,20.26
2023-04-22T10:19:05.973Z,20.24
2023-04-22T10:24:08.034Z,20.20
2023-04-22T10:29:16.929Z,20.25
2023-04-22T10:34:18.874Z,20.22
2023-04-22T10:39:22.465Z,20.28
2023-04-22T10:44:28.351Z,20.24
2023-04-22T10:49:31.264Z,20.23
2023-04-22T10:54:36.898Z,20.27
2023-04-22T10:59:52.002Z,20.22
2023-04-22T11:05:19.720Z,20.16
2023-04-22T11:10:44.625Z,20.32
2023-04-22T11:15:49.871Z,20.26
2023-04-22T11:20:53.926Z,20.37
2023-04-22T11:26:01.217Z,20.18
2023-04-22T11:31:07.991Z,20.30
2023-04-22T11:36:13.548Z,20.06
2023-04-22T11:41:21.781Z,20.12
2023-04-22T11:46:38.824Z,20.13
2023-04-22T11:51:57.054Z,20.25
2023-04-22T11:57:02.712Z,20.35
2023-04-22T12:02:08.495Z,20.33
2023-04-22T12:07:10.368Z,20.36
2023-04-22T12:12:12.244Z,20.36
2023-04-22T12:17:15.218Z,20.41
2023-04-22T12:22:30.675Z,20.43
2023-04-22T12:27:32.714Z,20.46
2023-04-22T12:32:34.460Z,20.40
2023-04-22T12:37:36.299Z,20.42
2023-04-22T12:42:38.053Z,20.40
2023-04-22T12:47:39.960Z,20.37
2023-04-22T12:52:41.799Z,20.42
2023-04-22T12:57:45.167Z,20.42
2023-04-22T13:02:48.671Z,20.40
2023-04-22T13:08:05.826Z,20.37
2023-04-22T13:13:18.590Z,20.42
2023-04-22T13:18:22.756Z,20.42
2023-04-22T13:23:26.081Z,20.40
2023-04-22T13:28:28.511Z,20.40
2023-04-22T13:33:30.276Z,20.45
2023-04-22T13:38:32.172Z,20.35
2023-04-22T13:43:34.025Z,20.39
2023-04-22T13:48:35.971Z,20.37
2023-04-22T13:53:38.197Z,20.39
2023-04-22T13:58:41.383Z,20.37
2023-04-22T14:03:44.735Z,20.34
2023-04-22T14:08:46.821Z,20.33
2023-04-22T14:13:48.697Z,20.33
2023-04-22T14:18:50.634Z,20.36
2023-04-22T14:23:52.500Z,20.39
2023-04-22T14:28:54.321Z,20.34
2023-04-22T14:33:56.427Z,20.35
2023-04-22T14:38:58.203Z,20.31
2023-04-22T14:44:00.032Z,20.32
2023-04-22T14:49:01.863Z,20.31
2023-04-22T14:54:03.790Z,20.34
2023-04-22T14:59:05.687Z,20.34
2023-04-22T15:04:08.317Z,20.31
2023-04-22T15:09:10.249Z,20.26
2023-04-22T15:14:12.029Z,20.28
2023-04-22T15:19:14.159Z,20.30
2023-04-22T15:24:16.037Z,20.26
2023-04-22T15:29:18.242Z,20.29
2023-04-22T15:34:20.249Z,20.25
2023-04-22T15:39:24.006Z,20.33
2023-04-22T15:44:25.792Z,20.31
2023-04-22T15:49:27.582Z,20.34
2023-04-22T15:54:29.432Z,20.29
2023-04-22T15:59:31.232Z,20.31
2023-04-22T16:04:33.335Z,20.27
2023-04-22T16:09:35.170Z,20.27
2023-04-22T16:14:36.971Z,20.33
2023-04-22T16:19:39.157Z,20.32
2023-04-22T16:24:43.756Z,20.30
2023-04-22T16:29:46.272Z,20.28
2023-04-22T16:34:48.076Z,20.32
2023-04-22T16:39:49.930Z,20.29
2023-04-22T16:44:51.795Z,20.33
2023-04-22T16:49:53.663Z,20.29
2023-04-22T16:54:55.898Z,20.32
2023-04-22T16:59:57.779Z,20.38
2023-04-22T17:05:02.637Z,20.39
2023-04-22T17:10:04.853Z,20.38
2023-04-22T17:15:07.468Z,20.35
2023-04-22T17:20:09.698Z,20.36
2023-04-22T17:25:11.471Z,20.34
2023-04-22T17:30:13.668Z,20.33
2023-04-22T17:35:16.017Z,20.30
2023-04-22T17:40:17.963Z,20.20
2023-04-22T17:45:19.848Z,20.30
2023-04-22T17:50:23.452Z,20.31
2023-04-22T17:55:25.274Z,20.32
2023-04-22T18:00:27.646Z,20.35
2023-04-22T18:05:29.398Z,20.36
2023-04-22T18:10:34.247Z,20.37
2023-04-22T18:15:36.098Z,20.35
2023-04-22T18:20:37.945Z,20.38
2023-04-22T18:25:39.805Z,20.36
2023-04-22T18:30:42.064Z,20.34
2023-04-22T18:35:43.904Z,20.30
2023-04-22T18:40:46.567Z,20.29
2023-04-22T18:45:48.461Z,20.28
2023-04-22T18:50:50.795Z,20.25
2023-04-22T18:55:52.580Z,20.29
2023-04-22T19:00:54.602Z,20.27
2023-04-22T19:05:56.497Z,20.27
2023-04-22T19:10:58.564Z,20.29
2023-04-22T19:16:00.425Z,20.29
2023-04-22T19:21:03.257Z,20.27
2023-04-22T19:26:05.259Z,20.26
2023-04-22T19:31:07.713Z,20.26
2023-04-22T19:36:09.674Z,20.28
2023-04-22T19:41:12.012Z,20.26
2023-04-22T19:46:13.893Z,20.32
2023-04-22T19:51:16.032Z,20.28
2023-04-22T19:56:18.363Z,20.32
2023-04-22T20:01:20.542Z,20.31
2023-04-22T20:06:22.941Z,20.27
2023-04-22T20:11:29.592Z,20.29
2023-04-22T20:16:32.240Z,20.31
2023-04-22T20:21:34.805Z,20.33
2023-04-22T20:26:37.732Z,20.34
2023-04-22T20:31:40.550Z,20.29
2023-04-22T20:36:43.048Z,20.28
2023-04-22T20:41:45.975Z,20.29
2023-04-22T20:46:48.997Z,20.30
2023-04-22T20:51:51.571Z,20.26
2023-04-22T20:56:54.079Z,20.28
2023-04-22T21:01:56.892Z,20.22
2023-04-22T21:07:04.171Z,20.23
2023-04-22T21:12:06.660Z,20.24
2023-04-22T21:17:35.542Z,20.22
2023-04-22T21:22:38.067Z,20.24
2023-04-22T21:27:40.107Z,20.24
2023-04-22T21:32:42.521Z,20.20
2023-04-22T21:37:44.436Z,20.22
2023-04-22T21:42:46.204Z,20.27
2023-04-22T21:47:48.027Z,20.27
2023-04-22T21:52:50.026Z,20.26
2023-04-22T21:57:51.852Z,20.21
2023-04-22T22:02:53.956Z,20.20
2023-04-22T22:07:55.867Z,20.22
2023-04-22T22:12:57.683Z,20.24
2023-04-22T22:17:59.798Z,20.23
2023-04-22T22:23:01.640Z,20.21
2023-04-22T22:28:03.561Z,20.21
2023-04-22T22:33:05.987Z,20.20
2023-04-22T22:38:07.834Z,20.23
2023-04-22T22:43:09.616Z,20.22
2023-04-22T22:48:11.478Z,20.20
2023-04-22T22:53:13.517Z,20.21
2023-04-22T22:58:15.384Z,20.27
2023-04-22T23:03:19.322Z,20.24
2023-04-22T23:08:21.576Z,20.22
2023-04-22T23:13:23.358Z,20.20
2023-04-22T23:18:26.919Z,20.22
2023-04-22T23:23:32.172Z,20.20
2023-04-22T23:28:34.371Z,20.24
2023-04-22T23:33:39.536Z,20.24
2023-04-22T23:38:41.389Z,20.22
2023-04-22T23:43:43.159Z,20.23
2023-04-22T23:48:45.002Z,20.22
2023-04-22T23:53:47.074Z,20.21
2023-04-22T23:58:52.430Z,20.22
